createdAt,value
2019-05-07T00:01:33.915Z,12.37
2019-05-07T00:06:35.118Z,13.00
2019-05-07T00:11:36.763Z,12.50
2019-05-07T00:16:42.021Z,11.57
2019-05-07T00:21:43.160Z,10.93
2019-05-07T00:26:44.629Z,12.33
2019-05-07T00:31:46.203Z,12.30
2019-05-07T00:37:02.701Z,12.37
2019-05-07T00:42:08.745Z,13.20
2019-05-07T00:47:10.203Z,13.70
2019-05-07T00:52:14.046Z,12.50
2019-05-07T00:57:15.051Z,13.93
2019-05-07T01:02:16.526Z,11.77
2019-05-07T01:07:19.198Z,12.33
2019-05-07T01:12:22.333Z,14.37
2019-05-07T01:17:24.031Z,13.23
2019-05-07T01:22:25.918Z,11.87
2019-05-07T01:27:27.692Z,11.97
2019-05-07T01:32:42.420Z,12.30
2019-05-07T01:37:43.587Z,12.33
2019-05-07T01:42:45.074Z,11.43
2019-05-07T01:47:46.699Z,9.77
2019-05-07T01:52:48.174Z,10.90
2019-05-07T01:57:49.659Z,10.90
2019-05-07T02:02:55.867Z,11.30
2019-05-07T02:07:59.252Z,10.03
2019-05-07T02:13:02.315Z,10.97
2019-05-07T02:18:04.158Z,10.93
2019-05-07T02:23:05.778Z,11.77
2019-05-07T02:28:07.250Z,10.83
2019-05-07T02:33:08.723Z,10.60
2019-05-07T02:38:13.879Z,11.47
2019-05-07T02:43:16.013Z,10.67
2019-05-07T02:48:19.436Z,11.33
2019-05-07T02:53:22.954Z,14.27
2019-05-07T02:58:24.473Z,10.60
2019-05-07T03:03:26.050Z,10.60
2019-05-07T03:08:27.923Z,11.73
2019-05-07T03:13:29.501Z,12.20
2019-05-07T03:18:33.404Z,12.77
2019-05-07T03:23:42.645Z,12.47
2019-05-07T03:28:53.610Z,12.80
2019-05-07T03:33:56.543Z,11.77
2019-05-07T03:38:58.480Z,12.07
2019-05-07T03:44:03.749Z,12.57
2019-05-07T03:49:07.305Z,10.60
2019-05-07T03:54:09.884Z,11.40
2019-05-07T03:59:13.027Z,12.30
2019-05-07T04:04:14.610Z,11.60
2019-05-07T04:09:16.089Z,11.43
2019-05-07T04:14:17.659Z,11.70
2019-05-07T04:19:19.218Z,13.13
2019-05-07T04:24:23.603Z,13.47
2019-05-07T04:29:25.206Z,11.13
2019-05-07T04:34:45.051Z,11.53
2019-05-07T04:39:48.443Z,12.03
2019-05-07T04:44:53.733Z,12.00
2019-05-07T04:49:53.910Z,11.83
2019-05-07T04:54:55.605Z,11.53
2019-05-07T04:59:58.260Z,11.13
2019-05-07T05:05:02.535Z,11.27
2019-05-07T05:10:06.483Z,11.47
2019-05-07T05:15:08.663Z,11.37
2019-05-07T05:20:13.112Z,12.27
2019-05-07T05:25:15.318Z,11.83
2019-05-07T05:30:21.974Z,12.37
2019-05-07T05:35:23.655Z,12.70
2019-05-07T05:40:25.244Z,12.17
2019-05-07T05:45:33.496Z,12.70
2019-05-07T05:50:37.351Z,11.87
2019-05-07T05:55:39.530Z,13.13
2019-05-07T06:00:42.286Z,13.97
2019-05-07T06:05:52.254Z,13.80
2019-05-07T06:11:02.187Z,13.83
2019-05-07T06:16:08.414Z,13.47
2019-05-07T06:21:28.505Z,12.80
2019-05-07T06:26:31.898Z,13.60
2019-05-07T06:31:33.503Z,13.87
2019-05-07T06:36:38.042Z,14.93
2019-05-07T06:41:58.370Z,14.17
2019-05-07T06:47:02.310Z,13.27
2019-05-07T06:52:03.540Z,13.00
2019-05-07T06:57:05.428Z,13.87
2019-05-07T07:02:27.205Z,13.37
2019-05-07T07:07:36.559Z,14.63
2019-05-07T07:12:34.723Z,14.90
2019-05-07T07:17:36.606Z,15.00
2019-05-07T07:22:38.201Z,13.20
2019-05-07T07:27:39.845Z,14.17
2019-05-07T07:32:43.274Z,13.27
2019-05-07T07:37:44.852Z,9.30
2019-05-07T07:42:46.494Z,9.23
2019-05-07T07:47:49.169Z,9.07
2019-05-07T07:52:52.989Z,8.47
2019-05-07T07:57:54.378Z,10.43
2019-05-07T08:02:57.859Z,8.27
2019-05-07T08:07:59.349Z,7.33
2019-05-07T08:13:01.984Z,7.33
2019-05-07T08:18:03.959Z,8.90
2019-05-07T08:23:05.647Z,10.33
2019-05-07T08:28:07.182Z,11.00
2019-05-07T08:33:14.604Z,10.40
2019-05-07T08:38:14.243Z,9.23
2019-05-07T08:43:15.746Z,6.93
2019-05-07T08:48:23.101Z,7.57
2019-05-07T08:53:24.588Z,6.40
2019-05-07T08:58:26.170Z,8.33
2019-05-07T09:03:43.317Z,8.47
2019-05-07T09:08:45.212Z,8.37
2019-05-07T09:13:47.913Z,8.30
2019-05-07T09:18:49.479Z,8.57
2019-05-07T09:23:52.328Z,8.17
2019-05-07T09:29:02.663Z,7.00
2019-05-07T09:34:04.618Z,6.50
2019-05-07T09:39:07.316Z,6.30
2019-05-07T09:44:08.874Z,5.67
2019-05-07T09:49:12.023Z,6.00
2019-05-07T09:54:13.789Z,4.80
2019-05-07T09:59:15.428Z,5.17
2019-05-07T10:04:17.199Z,6.53
2019-05-07T10:09:18.779Z,5.40
2019-05-07T10:14:22.383Z,6.67
2019-05-07T10:19:24.767Z,7.00
2019-05-07T10:24:26.471Z,6.93
2019-05-07T10:29:28.287Z,7.77
2019-05-07T10:34:29.905Z,5.90
2019-05-07T10:39:32.529Z,5.40
2019-05-07T10:44:53.353Z,4.80
2019-05-07T10:50:13.651Z,4.40
2019-05-07T10:55:15.933Z,5.07
2019-05-07T11:00:23.619Z,4.40
2019-05-07T11:05:25.174Z,5.03
2019-05-07T11:10:26.856Z,4.60
2019-05-07T11:15:28.538Z,5.47
2019-05-07T11:20:31.981Z,4.63
2019-05-07T11:25:34.011Z,4.53
2019-05-07T11:30:35.727Z,4.53
2019-05-07T11:35:37.276Z,4.43
2019-05-07T11:40:39.055Z,5.33
2019-05-07T11:45:54.610Z,4.80
2019-05-07T11:51:03.274Z,5.03
2019-05-07T11:55:59.786Z,5.53
2019-05-07T12:01:04.482Z,5.47
2019-05-07T12:06:06.045Z,5.27
2019-05-07T12:11:07.984Z,4.23
2019-05-07T12:16:12.078Z,5.90
2019-05-07T12:21:20.627Z,6.33
2019-05-07T12:26:16.633Z,6.37
2019-05-07T12:31:20.043Z,5.43
2019-05-07T12:36:22.739Z,5.50
2019-05-07T12:41:33.760Z,5.57
2019-05-07T12:46:35.963Z,5.70
2019-05-07T12:51:42.741Z,6.47
2019-05-07T12:56:44.339Z,5.90
2019-05-07T13:01:54.106Z,6.53
2019-05-07T13:07:02.489Z,6.73
2019-05-07T13:12:04.792Z,7.17
2019-05-07T13:17:07.446Z,6.57
2019-05-07T13:22:09.220Z,6.60
2019-05-07T13:27:11.003Z,7.27
2019-05-07T13:32:14.514Z,7.63
2019-05-07T13:37:28.013Z,7.90
2019-05-07T13:42:38.209Z,7.07
2019-05-07T13:47:40.598Z,8.00
2019-05-07T13:52:43.623Z,8.43
2019-05-07T13:57:45.287Z,7.83
2019-05-07T14:02:48.175Z,6.63
2019-05-07T14:07:49.958Z,5.63
2019-05-07T14:12:52.207Z,4.77
2019-05-07T14:17:55.056Z,5.13
2019-05-07T14:22:56.891Z,5.53
2019-05-07T14:27:58.923Z,5.03
2019-05-07T14:33:06.119Z,4.80
2019-05-07T14:38:18.824Z,6.53
2019-05-07T14:43:25.232Z,5.70
2019-05-07T14:48:26.815Z,4.07
2019-05-07T14:53:28.567Z,4.07
2019-05-07T14:58:31.870Z,3.70
2019-05-07T15:03:33.847Z,3.50
2019-05-07T15:08:35.838Z,4.00
2019-05-07T15:13:37.987Z,4.80
2019-05-07T15:18:54.174Z,4.33
2019-05-07T15:23:56.344Z,4.50
2019-05-07T15:29:00.085Z,6.30
2019-05-07T15:34:02.975Z,6.47
2019-05-07T15:39:04.969Z,6.87
2019-05-07T15:44:08.480Z,6.50
2019-05-07T15:49:12.387Z,5.20
2019-05-07T15:54:13.597Z,5.07
2019-05-07T15:59:22.343Z,4.33
2019-05-07T16:04:26.056Z,5.50
2019-05-07T16:09:29.633Z,4.90
2019-05-07T16:14:32.127Z,4.70
2019-05-07T16:19:33.974Z,5.83
2019-05-07T16:24:35.485Z,4.87
2019-05-07T16:29:37.084Z,7.60
2019-05-07T16:34:38.806Z,9.83
2019-05-07T16:39:42.118Z,6.37
2019-05-07T16:44:43.819Z,10.83
2019-05-07T16:49:46.428Z,7.93
2019-05-07T16:54:47.932Z,7.30
2019-05-07T16:59:49.578Z,8.30
2019-05-07T17:05:12.163Z,10.07
2019-05-07T17:10:13.960Z,7.93
2019-05-07T17:15:16.449Z,7.70
2019-05-07T17:20:18.930Z,8.27
2019-05-07T17:25:38.585Z,8.20
2019-05-07T17:30:42.099Z,8.97
2019-05-07T17:35:46.092Z,10.77
2019-05-07T17:40:47.654Z,13.40
2019-05-07T17:45:52.059Z,12.50
2019-05-07T17:50:58.725Z,10.07
2019-05-07T17:56:02.109Z,8.67
2019-05-07T18:01:05.627Z,7.83
2019-05-07T18:06:07.502Z,8.90
2019-05-07T18:11:20.232Z,9.27
2019-05-07T18:16:32.624Z,10.07
2019-05-07T18:21:34.379Z,11.53
2019-05-07T18:26:36.167Z,15.70
2019-05-07T18:31:51.548Z,18.53
2019-05-07T18:36:53.237Z,18.37
2019-05-07T18:41:54.715Z,17.80
2019-05-07T18:46:56.290Z,17.43
2019-05-07T18:51:57.768Z,20.63
2019-05-07T18:57:02.339Z,24.20
2019-05-07T19:02:04.987Z,27.93
2019-05-07T19:07:06.879Z,33.33
2019-05-07T19:12:12.888Z,38.43
2019-05-07T19:17:13.974Z,38.30
2019-05-07T19:22:15.555Z,45.50
2019-05-07T19:27:17.206Z,41.07
2019-05-07T19:32:19.100Z,38.70
2019-05-07T19:37:22.353Z,34.53
2019-05-07T19:42:24.056Z,34.30
2019-05-07T19:47:25.636Z,33.93
2019-05-07T19:52:27.101Z,32.37
2019-05-07T19:57:33.496Z,30.57
2019-05-07T20:02:37.065Z,30.33
2019-05-07T20:07:38.768Z,26.23
2019-05-07T20:12:42.864Z,23.97
2019-05-07T20:17:44.511Z,23.67
2019-05-07T20:22:46.331Z,24.40
2019-05-07T20:27:47.854Z,26.00
2019-05-07T20:32:49.572Z,27.73
2019-05-07T20:37:52.078Z,28.43
2019-05-07T20:42:53.797Z,28.30
2019-05-07T20:47:55.281Z,28.77
2019-05-07T20:52:56.754Z,30.63
2019-05-07T20:57:58.341Z,32.43
2019-05-07T21:03:12.560Z,46.07
2019-05-07T21:08:15.744Z,41.33
2019-05-07T21:13:27.427Z,40.87
2019-05-07T21:18:22.952Z,37.53
2019-05-07T21:23:24.126Z,35.23
2019-05-07T21:28:26.095Z,32.43
2019-05-07T21:33:27.706Z,28.80
2019-05-07T21:38:29.322Z,28.80
2019-05-07T21:43:32.674Z,30.57
2019-05-07T21:48:34.378Z,30.10
2019-05-07T21:53:37.758Z,31.07
2019-05-07T21:58:46.939Z,31.43
2019-05-07T22:03:52.388Z,32.27
2019-05-07T22:08:54.832Z,30.43
2019-05-07T22:13:57.720Z,32.63
2019-05-07T22:18:59.335Z,34.67
2019-05-07T22:24:02.796Z,28.83
2019-05-07T22:29:04.334Z,24.83
2019-05-07T22:34:13.786Z,22.70
2019-05-07T22:39:15.405Z,21.20
2019-05-07T22:44:18.776Z,20.33
2019-05-07T22:49:22.727Z,20.90
2019-05-07T22:54:23.730Z,21.83
2019-05-07T22:59:25.469Z,22.67
2019-05-07T23:04:26.948Z,25.37
2019-05-07T23:09:28.566Z,33.20
2019-05-07T23:14:30.147Z,31.03
2019-05-07T23:19:32.714Z,34.07
2019-05-07T23:24:34.334Z,32.60
2019-05-07T23:29:35.808Z,34.37
2019-05-07T23:34:37.287Z,30.83
2019-05-07T23:39:42.381Z,28.57
2019-05-07T23:44:44.198Z,35.60
2019-05-07T23:49:45.719Z,27.00
2019-05-07T23:54:47.196Z,33.00
2019-05-07T23:59:48.663Z,31.40
